Time;durP1;ratioP1;P1;durP2;ratioP2;P2;SDS_P1;SDS_P2;PMS_P1;PMS_P2;Temp;Humidity;BMP_temperature;BMP_pressure;BME280_temperature;BME280_humidity;BME280_pressure;Samples;Min_cycle;Max_cycle;Signal;HPM_P1;HPM_P2
2021/03/15 00:01:54;;;;;;;27.90;13.10;;;;;;;5.08;63.48;99468.91;4874316;28;96832;-74
2021/03/15 00:04:20;;;;;;;27.60;13.10;;;;;;;5.05;63.54;99463.78;4857757;28;96999;-79
2021/03/15 00:06:46;;;;;;;27.97;13.77;;;;;;;5.06;63.24;99465.50;4857674;28;98076;-72
2021/03/15 00:09:11;;;;;;;25.87;13.00;;;;;;;4.93;63.95;99464.09;4873825;28;101317;-72
2021/03/15 00:11:38;;;;;;;24.90;12.90;;;;;;;5.00;63.46;99473.44;4841679;28;96794;-72
2021/03/15 00:14:03;;;;;;;23.87;13.00;;;;;;;5.05;63.26;99468.97;4858145;28;97335;-74
2021/03/15 00:16:29;;;;;;;25.20;14.70;;;;;;;5.03;63.57;99468.16;4855894;28;101746;-72
2021/03/15 00:18:54;;;;;;;25.23;13.13;;;;;;;4.95;63.57;99470.13;4858033;28;97318;-74
2021/03/15 00:21:20;;;;;;;24.87;13.43;;;;;;;4.93;63.62;99469.28;4876175;28;96747;-75
2021/03/15 00:23:46;;;;;;;26.80;13.10;;;;;;;4.97;63.47;99476.09;4853210;29;97163;-72
2021/03/15 00:26:11;;;;;;;26.40;13.17;;;;;;;4.93;63.47;99477.09;4855723;28;101415;-72
2021/03/15 00:28:37;;;;;;;28.80;13.80;;;;;;;4.86;63.63;99475.50;4876137;28;98325;-72
2021/03/15 00:31:02;;;;;;;20.07;13.20;;;;;;;4.92;63.27;99472.78;4845545;28;96713;-72
2021/03/15 00:33:28;;;;;;;25.00;13.23;;;;;;;4.93;63.24;99474.50;4860654;28;97263;-75
2021/03/15 00:35:55;;;;;;;23.63;12.03;;;;;;;4.93;62.93;99469.28;4860383;28;100878;-72
2021/03/15 00:38:21;;;;;;;22.63;12.57;;;;;;;4.84;63.29;99478.16;4860192;28;101766;-76
2021/03/15 00:40:46;;;;;;;20.27;10.57;;;;;;;4.84;63.45;99470.38;4876524;28;96785;-72
2021/03/15 00:43:12;;;;;;;19.43;10.70;;;;;;;4.85;63.35;99471.22;4869108;28;96774;-72
2021/03/15 00:45:38;;;;;;;19.33;10.97;;;;;;;4.83;63.46;99472.97;4884901;28;97562;-72
2021/03/15 00:48:04;;;;;;;19.37;10.93;;;;;;;4.81;63.71;99475.63;4879467;28;101162;-74
2021/03/15 00:50:40;;;;;;;16.80;10.50;;;;;;;4.78;63.34;99478.31;4894586;28;97243;-72
2021/03/15 00:53:06;;;;;;;19.53;10.57;;;;;;;4.80;63.23;99473.06;4861552;28;96811;-72
2021/03/15 00:55:32;;;;;;;20.60;10.90;;;;;;;4.78;63.14;99477.47;4859257;28;101095;-72
2021/03/15 00:57:58;;;;;;;17.90;10.13;;;;;;;4.74;63.48;99469.75;4860802;28;101411;-72
2021/03/15 01:00:34;;;;;;;17.20;8.63;;;;;;;4.80;63.15;99475.66;4860252;28;96716;-73
2021/03/15 01:03:18;;;;;;;18.40;9.88;;;;;;;4.79;63.44;99473.97;4863233;28;97513;-74
2021/03/15 01:05:50;;;;;;;19.63;9.77;;;;;;;4.76;63.03;99469.69;4860189;28;101011;-74
2021/03/15 01:08:48;;;;;;;19.00;8.83;;;;;;;4.73;63.26;99462.81;4860950;28;99584;-74
2021/03/15 01:11:25;;;;;;;14.10;8.60;;;;;;;4.75;63.42;99462.78;4861112;28;97093;-77
2021/03/15 01:14:05;;;;;;;13.75;7.55;;;;;;;4.73;63.06;99461.97;4876893;28;96765;-75
2021/03/15 01:16:57;;;;;;;13.97;8.37;;;;;;;4.71;63.33;99463.72;4862965;28;101019;-74
2021/03/15 01:19:26;;;;;;;13.73;7.90;;;;;;;4.69;63.34;99470.75;4859712;28;101796;-74
2021/03/15 01:21:52;;;;;;;17.63;8.20;;;;;;;4.70;63.18;99454.22;4860510;28;97049;-74
2021/03/15 01:24:17;;;;;;;12.60;8.07;;;;;;;4.66;63.32;99465.63;4860736;28;96991;-72
2021/03/15 01:26:43;;;;;;;14.83;7.97;;;;;;;4.63;63.15;99458.72;4876536;28;100861;-72
2021/03/15 01:29:09;;;;;;;14.10;7.77;;;;;;;4.62;63.51;99456.16;4879022;28;101043;-72
2021/03/15 01:31:34;;;;;;;13.97;8.83;;;;;;;4.62;63.22;99464.81;4862401;28;97121;-73
2021/03/15 01:34:00;;;;;;;18.97;10.00;;;;;;;4.70;62.81;99464.63;4868121;28;96838;-72
2021/03/15 01:36:26;;;;;;;14.87;8.63;;;;;;;4.70;62.82;99459.44;4858818;28;101177;-73
2021/03/15 01:38:51;;;;;;;13.80;8.30;;;;;;;4.68;63.25;99459.50;4902514;28;97839;-72
2021/03/15 01:41:17;;;;;;;15.70;8.47;;;;;;;4.62;63.01;99459.59;4846502;28;96919;-72
2021/03/15 01:43:42;;;;;;;16.67;8.57;;;;;;;4.63;63.32;99453.53;4901462;28;97341;-72
2021/03/15 01:46:08;;;;;;;15.17;7.87;;;;;;;4.58;63.41;99444.13;4862546;28;100667;-72
2021/03/15 01:48:33;;;;;;;16.77;8.70;;;;;;;4.54;63.04;99445.97;4878200;28;101731;-73
2021/03/15 01:50:59;;;;;;;15.23;8.27;;;;;;;4.55;63.25;99447.66;4879078;28;97120;-72
2021/03/15 01:53:25;;;;;;;15.57;8.40;;;;;;;4.53;63.17;99439.88;4862625;28;97183;-77
2021/03/15 01:55:51;;;;;;;19.23;8.47;;;;;;;4.49;63.35;99451.25;4859744;28;97529;-74
2021/03/15 01:58:17;;;;;;;17.10;8.07;;;;;;;4.50;63.08;99442.56;4875349;28;101415;-72
2021/03/15 02:00:43;;;;;;;15.37;8.63;;;;;;;4.47;63.02;99433.97;4909054;28;96801;-72
2021/03/15 02:03:12;;;;;;;23.23;10.30;;;;;;;4.46;63.14;99445.28;4879250;28;96772;-72
2021/03/15 02:05:40;;;;;;;15.37;8.17;;;;;;;4.44;62.93;99441.84;4893448;28;97977;-75
2021/03/15 02:08:06;;;;;;;14.93;9.30;;;;;;;4.42;63.25;99443.63;4878560;28;101326;-72
2021/03/15 02:10:34;;;;;;;17.03;9.43;;;;;;;4.39;62.86;99441.94;4894215;28;97439;-72
2021/03/15 02:13:05;;;;;;;16.60;9.63;;;;;;;4.42;63.14;99434.09;4896606;28;96784;-72
2021/03/15 02:15:50;;;;;;;16.60;9.23;;;;;;;4.39;62.92;99441.94;4876282;28;101246;-73
2021/03/15 02:18:20;;;;;;;15.10;8.57;;;;;;;4.31;62.86;99434.34;4862471;28;101266;-73
2021/03/15 02:20:52;;;;;;;19.27;10.13;;;;;;;4.31;63.25;99436.09;4877361;28;96761;-72
2021/03/15 02:23:24;;;;;;;13.40;8.50;;;;;;;4.37;62.97;99430.75;4893817;28;98359;-73
2021/03/15 02:26:16;;;;;;;16.60;9.90;;;;;;;4.30;62.86;99432.63;4866992;28;101464;-73
2021/03/15 02:28:47;;;;;;;15.53;9.13;;;;;;;4.31;62.94;99423.94;4858535;28;101193;-73
2021/03/15 02:31:29;;;;;;;17.90;9.25;;;;;;;4.32;63.20;99427.41;4875084;28;97319;-73
2021/03/15 02:34:15;;;;;;;15.93;9.65;;;;;;;4.24;63.00;99419.75;4859618;28;96765;-73
2021/03/15 02:36:42;;;;;;;14.03;9.03;;;;;;;4.27;63.08;99426.63;4873798;28;101354;-73
2021/03/15 02:39:15;;;;;;;15.77;9.43;;;;;;;4.24;63.02;99429.31;4859443;28;101164;-73
2021/03/15 02:41:42;;;;;;;15.33;9.07;;;;;;;4.26;63.30;99427.53;4858836;28;97005;-73
2021/03/15 02:44:08;;;;;;;15.40;9.13;;;;;;;4.18;63.47;99434.63;4875864;28;97209;-73
2021/03/15 02:46:34;;;;;;;15.03;8.37;;;;;;;4.20;63.03;99425.06;4860664;28;100719;-73
2021/03/15 02:49:04;;;;;;;15.40;8.37;;;;;;;4.24;62.90;99432.75;4878196;28;97338;-73
2021/03/15 02:51:32;;;;;;;14.27;8.00;;;;;;;4.18;63.21;99432.88;4861701;28;96606;-73
2021/03/15 02:53:59;;;;;;;15.03;9.33;;;;;;;4.26;62.64;99430.97;4858864;28;97102;-73
2021/03/15 02:56:26;;;;;;;15.10;7.93;;;;;;;4.22;62.73;99438.91;4864949;28;98038;-76
2021/03/15 02:58:55;;;;;;;14.37;8.20;;;;;;;4.18;63.19;99438.09;4874048;28;101508;-73
2021/03/15 03:01:22;;;;;;;15.60;8.97;;;;;;;4.07;63.40;99429.66;4859141;28;97205;-73
2021/03/15 03:03:48;;;;;;;16.17;8.57;;;;;;;4.09;63.09;99433.09;4858485;28;97320;-73
2021/03/15 03:06:15;;;;;;;14.10;8.13;;;;;;;4.16;63.20;99431.22;4858294;28;101387;-73
2021/03/15 03:08:43;;;;;;;13.73;8.37;;;;;;;4.12;63.43;99429.59;4857839;28;101553;-73
2021/03/15 03:11:09;;;;;;;17.03;8.40;;;;;;;4.15;63.20;99421.72;4858588;28;97310;-73
2021/03/15 03:13:36;;;;;;;16.33;9.23;;;;;;;3.99;63.16;99416.88;4857540;28;97109;-73
2021/03/15 03:16:02;;;;;;;13.40;8.60;;;;;;;3.89;63.67;99423.13;4834392;29;100560;-73
2021/03/15 03:18:28;;;;;;;14.90;9.00;;;;;;;3.89;63.71;99420.53;4839181;29;101158;-77
2021/03/15 03:20:55;;;;;;;14.97;8.57;;;;;;;3.96;63.50;99419.53;4855845;29;96646;-73
2021/03/15 03:23:25;;;;;;;13.23;8.77;;;;;;;4.01;63.53;99422.84;4839969;29;97094;-73
2021/03/15 03:25:54;;;;;;;15.83;9.27;;;;;;;4.04;63.17;99425.41;4838991;29;97928;-73
2021/03/15 03:28:20;;;;;;;14.37;8.40;;;;;;;4.01;63.26;99422.84;4824513;29;102023;-73
2021/03/15 03:30:46;;;;;;;15.23;8.83;;;;;;;3.92;63.34;99420.47;4839261;29;98049;-73
2021/03/15 03:33:13;;;;;;;16.23;8.77;;;;;;;3.93;63.53;99422.19;4839326;29;97069;-73
2021/03/15 03:35:38;;;;;;;15.93;8.43;;;;;;;3.96;63.58;99429.06;4854044;29;97729;-73
2021/03/15 03:38:04;;;;;;;13.17;8.03;;;;;;;3.92;63.38;99422.22;4839625;29;100882;-74
2021/03/15 03:40:30;;;;;;;21.87;9.93;;;;;;;3.92;63.21;99415.28;4839831;29;96736;-78
2021/03/15 03:42:56;;;;;;;16.47;8.70;;;;;;;3.90;63.40;99429.16;4839875;29;96886;-73
2021/03/15 03:45:23;;;;;;;13.23;7.90;;;;;;;3.90;63.56;99422.25;4839149;29;101067;-73
2021/03/15 03:47:49;;;;;;;16.37;9.33;;;;;;;3.96;63.51;99426.47;4838747;29;100858;-73
2021/03/15 03:50:20;;;;;;;16.63;8.50;;;;;;;3.98;63.36;99424.69;4840091;29;96710;-73
2021/03/15 03:53:05;;;;;;;15.37;8.27;;;;;;;3.91;63.35;99430.91;4855150;29;97049;-73
2021/03/15 03:55:49;;;;;;;17.87;9.70;;;;;;;3.88;63.18;99439.59;4839871;29;98217;-76
2021/03/15 03:58:15;;;;;;;16.13;8.27;;;;;;;3.86;63.84;99436.19;4858296;29;101521;-73
2021/03/15 04:00:41;;;;;;;14.17;8.43;;;;;;;3.85;63.50;99435.31;4841624;29;97464;-73
2021/03/15 04:03:14;;;;;;;13.33;8.37;;;;;;;3.73;63.99;99438.19;4858386;29;96849;-73
2021/03/15 04:05:42;;;;;;;15.27;9.30;;;;;;;3.79;63.71;99432.88;4858577;29;97967;-73
2021/03/15 04:08:10;;;;;;;15.53;8.50;;;;;;;3.76;63.71;99434.66;4842344;29;102061;-74
2021/03/15 04:10:36;;;;;;;17.17;8.63;;;;;;;3.81;63.59;99431.09;4842031;29;96956;-73
2021/03/15 04:13:08;;;;;;;15.57;8.47;;;;;;;3.82;63.49;99426.75;4842710;29;96799;-73
2021/03/15 04:15:34;;;;;;;18.20;8.70;;;;;;;3.69;64.00;99423.53;4844838;28;101264;-74
2021/03/15 04:18:02;;;;;;;14.30;7.97;;;;;;;3.66;64.07;99436.56;4877523;28;97316;-73
2021/03/15 04:20:32;;;;;;;16.07;7.97;;;;;;;3.67;64.04;99445.25;4868712;28;96706;-72
2021/03/15 04:22:58;;;;;;;16.00;8.60;;;;;;;3.72;64.20;99452.03;4879549;28;96916;-73
2021/03/15 04:25:29;;;;;;;14.33;8.37;;;;;;;3.76;64.11;99445.91;4879332;28;97422;-73
2021/03/15 04:27:55;;;;;;;12.67;8.73;;;;;;;3.73;64.13;99442.53;4879873;28;98985;-73
2021/03/15 04:30:21;;;;;;;15.53;8.37;;;;;;;3.70;63.99;99450.38;4896333;28;97133;-73
2021/03/15 04:32:52;;;;;;;11.87;7.60;;;;;;;3.67;64.27;99447.84;4879257;28;97122;-73
2021/03/15 04:35:32;;;;;;;14.03;8.53;;;;;;;3.66;64.16;99444.38;4880010;28;101813;-72
2021/03/15 04:38:04;;;;;;;15.23;8.37;;;;;;;3.57;64.39;99449.75;4880328;28;98626;-73
2021/03/15 04:40:31;;;;;;;15.60;9.48;;;;;;;3.59;64.50;99451.44;4864556;28;96702;-76
2021/03/15 04:43:00;;;;;;;14.40;8.77;;;;;;;3.60;64.23;99454.88;4880685;28;96851;-73
2021/03/15 04:45:27;;;;;;;14.80;8.97;;;;;;;3.56;64.03;99459.28;4879173;28;97436;-73
2021/03/15 04:47:54;;;;;;;17.50;9.10;;;;;;;3.53;64.06;99451.53;4872512;28;98472;-73
2021/03/15 04:50:20;;;;;;;18.43;9.60;;;;;;;3.50;64.65;99463.72;4860191;28;96933;-73
2021/03/15 04:52:46;;;;;;;15.60;9.57;;;;;;;3.45;64.82;99465.56;4891644;28;97175;-73
2021/03/15 04:55:13;;;;;;;14.10;9.23;;;;;;;3.45;64.80;99461.22;4860059;28;101344;-73
2021/03/15 04:57:40;;;;;;;16.13;9.73;;;;;;;3.52;64.88;99462.81;4859862;28;101015;-73
2021/03/15 05:00:08;;;;;;;17.80;8.97;;;;;;;3.55;64.30;99464.47;4876900;28;97391;-73
2021/03/15 05:02:34;;;;;;;16.73;9.00;;;;;;;3.57;64.42;99460.97;4876347;28;97141;-77
2021/03/15 05:05:01;;;;;;;16.57;9.17;;;;;;;3.70;64.76;99459.00;4877405;28;97985;-72
2021/03/15 05:07:29;;;;;;;11.33;8.20;;;;;;;3.75;64.59;99461.50;4860713;28;98395;-72
2021/03/15 05:09:55;;;;;;;15.23;9.33;;;;;;;3.76;64.53;99465.81;4860062;28;96543;-73
2021/03/15 05:12:21;;;;;;;15.93;8.67;;;;;;;3.83;64.34;99467.41;4860911;28;96640;-72
2021/03/15 05:14:48;;;;;;;13.67;9.07;;;;;;;3.86;64.41;99467.34;4875156;28;98250;-73
2021/03/15 05:17:14;;;;;;;16.10;9.37;;;;;;;3.93;64.67;99463.75;4859830;28;101060;-73
2021/03/15 05:19:39;;;;;;;16.40;9.37;;;;;;;3.97;64.46;99464.53;4876992;28;96597;-73
2021/03/15 05:22:07;;;;;;;17.87;10.07;;;;;;;4.02;64.44;99458.34;4860613;28;96838;-73
2021/03/15 05:24:34;;;;;;;14.10;9.03;;;;;;;4.07;64.37;99461.72;4860129;28;98712;-75
2021/03/15 05:27:00;;;;;;;14.47;9.47;;;;;;;4.12;64.51;99461.59;4859839;28;101153;-72
2021/03/15 05:29:27;;;;;;;21.17;12.43;;;;;;;4.12;64.43;99456.41;4860690;28;97141;-72
2021/03/15 05:31:52;;;;;;;41.37;27.50;;;;;;;4.16;64.95;99463.25;4876103;28;97239;-72
2021/03/15 05:34:21;;;;;;;33.00;19.80;;;;;;;4.15;65.06;99466.72;4877114;28;97471;-73
2021/03/15 05:36:47;;;;;;;56.47;28.00;;;;;;;4.22;64.58;99457.94;4874820;28;97676;-72
2021/03/15 05:39:13;;;;;;;46.63;22.67;;;;;;;4.30;64.83;99461.22;4844080;28;96655;-73
2021/03/15 05:41:51;;;;;;;25.40;13.43;;;;;;;4.40;64.43;99464.47;4859507;28;97176;-73
2021/03/15 05:44:41;;;;;;;24.10;12.23;;;;;;;4.43;64.42;99459.19;4865575;28;98126;-72
2021/03/15 05:47:09;;;;;;;16.17;9.80;;;;;;;4.51;64.44;99464.22;4894239;28;99444;-73
2021/03/15 05:50:04;;;;;;;13.93;9.27;;;;;;;4.56;64.19;99467.56;4895788;28;96564;-77
2021/03/15 05:52:44;;;;;;;14.17;8.97;;;;;;;4.63;64.29;99460.50;4879275;28;97260;-72
2021/03/15 05:55:47;;;;;;;13.37;9.00;;;;;;;4.58;64.35;99464.94;4866009;28;101389;-72
2021/03/15 05:58:18;;;;;;;;;;;;;;;4.64;64.20;99463.03;4876213;28;101105;-73
2021/03/15 06:01:13;;;;;;;19.73;9.70;;;;;;;4.70;63.83;99465.47;4874945;28;97059;-72
2021/03/15 06:04:03;;;;;;;15.17;9.20;;;;;;;4.75;63.93;99470.59;4859201;28;96793;-72
2021/03/15 06:06:37;;;;;;;15.90;9.50;;;;;;;4.78;63.70;99464.47;4887261;28;99527;-72
2021/03/15 06:09:04;;;;;;;16.77;10.10;;;;;;;4.78;64.02;99457.50;4862872;28;100947;-72
2021/03/15 06:11:43;;;;;;;17.47;9.87;;;;;;;4.82;63.92;99468.69;4878654;28;97263;-73
2021/03/15 06:14:13;;;;;;;16.87;9.97;;;;;;;4.85;63.46;99458.22;4878702;28;97008;-72
2021/03/15 06:16:40;;;;;;;16.13;10.70;;;;;;;4.85;64.14;99461.66;4866021;28;98215;-73
2021/03/15 06:19:06;;;;;;;22.60;13.40;;;;;;;4.90;63.73;99467.63;4859283;28;97375;-73
2021/03/15 06:21:32;;;;;;;24.20;14.23;;;;;;;4.96;63.59;99464.00;4860224;28;96616;-76
2021/03/15 06:23:59;;;;;;;21.77;13.50;;;;;;;5.05;63.22;99468.13;4859843;28;96830;-72
2021/03/15 06:26:26;;;;;;;25.33;14.63;;;;;;;5.12;63.23;99461.88;4859651;28;98075;-73
2021/03/15 06:28:54;;;;;;;22.50;14.10;;;;;;;5.14;63.21;99468.75;4858677;28;101265;-73
2021/03/15 06:31:21;;;;;;;22.27;13.13;;;;;;;5.09;63.06;99456.75;4859352;28;96728;-72
2021/03/15 06:33:46;;;;;;;27.67;14.17;;;;;;;5.12;62.73;99460.13;4858144;28;96811;-73
2021/03/15 06:36:12;;;;;;;23.33;14.90;;;;;;;5.18;62.50;99462.59;4858640;28;101327;-73
2021/03/15 06:38:38;;;;;;;24.37;15.27;;;;;;;5.23;62.62;99465.03;4874345;28;97334;-74
2021/03/15 06:41:07;;;;;;;23.80;13.67;;;;;;;5.18;62.56;99459.97;4843549;28;97156;-75
2021/03/15 06:43:33;;;;;;;22.03;12.87;;;;;;;5.29;62.36;99464.03;4855555;28;97095;-78
2021/03/15 06:45:59;;;;;;;21.27;13.97;;;;;;;5.34;62.21;99465.63;4868069;28;101357;-73
2021/03/15 06:48:25;;;;;;;17.67;11.93;;;;;;;5.41;62.00;99464.59;4837133;29;99986;-72
2021/03/15 06:50:53;;;;;;;19.73;11.67;;;;;;;5.55;61.95;99471.16;4841354;28;97208;-72
2021/03/15 06:53:19;;;;;;;18.33;12.13;;;;;;;5.60;61.49;99467.53;4853506;28;97348;-73
2021/03/15 06:55:50;;;;;;;21.60;12.73;;;;;;;5.64;60.86;99461.38;4852323;28;101856;-73
2021/03/15 06:58:28;;;;;;;19.43;13.43;;;;;;;5.78;60.67;99460.09;4882792;28;99213;-73
2021/03/15 07:01:06;;;;;;;19.47;12.50;;;;;;;5.73;60.59;99461.97;4880178;28;96737;-73
2021/03/15 07:03:32;;;;;;;19.33;12.13;;;;;;;5.81;60.18;99460.03;4874927;28;96896;-73
2021/03/15 07:05:58;;;;;;;23.40;13.83;;;;;;;5.86;60.23;99458.16;4877377;28;100840;-72
2021/03/15 07:08:25;;;;;;;19.60;13.17;;;;;;;5.94;59.93;99471.00;4878040;28;101127;-73
2021/03/15 07:10:57;;;;;;;19.03;13.10;;;;;;;5.99;60.23;99456.94;4884712;28;97442;-73
2021/03/15 07:13:24;;;;;;;23.07;12.93;;;;;;;6.16;60.09;99453.81;4862854;28;96814;-73
2021/03/15 07:15:52;;;;;;;19.43;12.97;;;;;;;6.33;59.20;99461.13;4867713;28;101686;-74
2021/03/15 07:18:19;;;;;;;20.50;13.47;;;;;;;6.41;59.40;99473.94;4850098;28;101090;-73
2021/03/15 07:20:55;;;;;;;22.77;14.43;;;;;;;6.46;59.48;99472.06;4852060;28;97290;-73
2021/03/15 07:23:39;;;;;;;22.03;12.93;;;;;;;6.35;59.65;99467.16;4841023;28;96844;-73
2021/03/15 07:26:13;;;;;;;21.03;13.87;;;;;;;6.39;59.64;99467.91;4861317;28;97716;-74
2021/03/15 07:28:43;;;;;;;22.63;13.60;;;;;;;6.33;59.64;99472.41;4870197;28;98380;-74
2021/03/15 07:31:21;;;;;;;23.13;14.03;;;;;;;6.37;59.84;99472.31;4893290;28;97470;-73
2021/03/15 07:33:48;;;;;;;22.27;13.90;;;;;;;6.41;59.81;99466.13;4888708;28;96847;-74
2021/03/15 07:36:14;;;;;;;24.50;14.40;;;;;;;6.42;59.69;99473.03;4893212;28;97665;-73
2021/03/15 07:38:39;;;;;;;24.23;14.27;;;;;;;6.55;59.55;99471.78;4876833;28;98004;-73
2021/03/15 07:41:19;;;;;;;21.77;13.23;;;;;;;6.64;59.55;99474.09;4877399;28;97174;-73
2021/03/15 07:43:45;;;;;;;22.37;13.40;;;;;;;6.65;59.61;99475.78;4876248;28;96841;-73
2021/03/15 07:46:24;;;;;;;19.87;13.43;;;;;;;6.76;59.70;99478.91;4876373;28;97435;-73
2021/03/15 07:48:50;;;;;;;19.50;12.63;;;;;;;6.74;59.36;99472.88;4876306;28;100627;-72
2021/03/15 07:51:27;;;;;;;18.70;12.43;;;;;;;6.72;59.45;99476.44;4877034;28;96731;-73
2021/03/15 07:54:05;;;;;;;20.93;12.37;;;;;;;6.77;59.40;99479.75;4890058;28;97733;-73
2021/03/15 07:56:31;;;;;;;17.33;11.40;;;;;;;6.74;59.28;99477.25;4847633;29;101233;-73
2021/03/15 07:58:57;;;;;;;19.07;11.13;;;;;;;6.80;nan;99482.28;4854883;28;101220;-73
2021/03/15 08:01:24;;;;;;;17.30;11.33;;;;;;;6.77;59.45;99480.59;4842430;28;96843;-73
2021/03/15 08:03:49;;;;;;;16.57;11.20;;;;;;;6.79;59.28;99478.81;4841995;28;97138;-72
2021/03/15 08:06:16;;;;;;;16.90;10.90;;;;;;;6.86;59.69;99486.44;4843066;28;101490;-74
2021/03/15 08:08:42;;;;;;;16.37;10.87;;;;;;;6.95;59.35;99489.63;4858116;28;101812;-72
2021/03/15 08:11:11;;;;;;;17.67;11.13;;;;;;;7.08;59.04;99487.47;4855859;28;97109;-73
2021/03/15 08:13:48;;;;;;;18.13;12.03;;;;;;;7.05;59.29;99484.97;4872833;28;97475;-75
2021/03/15 08:16:14;;;;;;;23.58;12.80;;;;;;;7.14;58.82;99489.88;4874399;28;98150;-72
2021/03/15 08:18:44;;;;;;;19.23;12.03;;;;;;;7.09;58.94;99488.31;4871119;28;101949;-72
2021/03/15 08:21:11;;;;;;;24.58;13.70;;;;;;;7.09;58.95;99496.13;4856378;28;97473;-72
2021/03/15 08:23:44;;;;;;;21.23;12.63;;;;;;;7.07;58.73;99485.75;4855860;28;96971;-75
2021/03/15 08:26:12;;;;;;;17.15;12.27;;;;;;;7.16;59.07;99487.22;4867161;28;97385;-72
2021/03/15 08:28:40;;;;;;;21.57;13.23;;;;;;;7.14;59.32;99487.25;4871718;28;100825;-76
2021/03/15 08:31:21;;;;;;;19.63;12.43;;;;;;;7.30;58.24;99489.34;4846533;28;97369;-72
2021/03/15 08:33:48;;;;;;;24.08;12.20;;;;;;;7.37;58.20;99489.09;4858606;28;97067;-72
2021/03/15 08:36:15;;;;;;;20.42;11.90;;;;;;;7.49;58.25;99486.06;4869550;28;97351;-72
2021/03/15 08:38:41;;;;;;;17.10;10.43;;;;;;;7.40;57.88;99486.38;4863902;28;97915;-72
2021/03/15 08:41:08;;;;;;;16.83;10.33;;;;;;;7.53;58.04;99478.97;4857271;28;97023;-73
2021/03/15 08:43:39;;;;;;;16.23;10.77;;;;;;;7.78;57.32;99476.34;4859376;28;97123;-73
2021/03/15 08:46:19;;;;;;;16.00;10.50;;;;;;;8.15;56.50;99475.84;4874619;28;97682;-72
2021/03/15 08:48:44;;;;;;;17.30;10.60;;;;;;;9.09;54.88;99471.34;4858402;28;101041;-72
2021/03/15 08:51:11;;;;;;;14.43;9.20;;;;;;;12.02;49.26;99466.28;4875332;28;97223;-72
2021/03/15 08:53:36;;;;;;;13.63;8.77;;;;;;;11.70;48.63;99468.78;4859251;28;98605;-76
2021/03/15 08:56:03;;;;;;;15.98;9.00;;;;;;;11.22;49.46;99470.34;4870359;28;101776;-72
2021/03/15 08:58:34;;;;;;;19.20;10.57;;;;;;;10.82;50.49;99474.09;4858989;28;100947;-72
2021/03/15 09:01:01;;;;;;;16.02;10.68;;;;;;;10.75;50.78;99476.16;4879828;28;96803;-72
2021/03/15 09:03:55;;;;;;;16.77;9.93;;;;;;;10.24;50.62;99466.31;4879681;28;96943;-72
2021/03/15 09:06:30;;;;;;;15.75;9.43;;;;;;;10.04;51.71;99462.00;4881276;28;98123;-72
2021/03/15 09:09:02;;;;;;;14.98;9.23;;;;;;;9.84;52.00;99452.41;4873878;28;97968;-73
2021/03/15 09:11:33;;;;;;;14.55;8.52;;;;;;;10.06;52.20;99452.28;4874325;28;97374;-72
2021/03/15 09:14:18;;;;;;;14.35;9.30;;;;;;;10.23;51.45;99439.22;4881612;28;97504;-72
2021/03/15 09:16:46;;;;;;;13.10;8.90;;;;;;;10.01;52.21;99442.00;4891878;28;101093;-72
2021/03/15 09:19:23;;;;;;;11.88;8.18;;;;;;;9.70;53.33;99445.16;4877921;28;101553;-73
2021/03/15 09:21:58;;;;;;;18.67;9.65;;;;;;;9.58;52.73;99443.91;4861354;28;97057;-72
2021/03/15 09:24:45;;;;;;;17.23;10.10;;;;;;;9.71;53.04;99437.19;4861512;28;97254;-74
2021/03/15 09:27:20;;;;;;;20.98;9.43;;;;;;;10.23;52.01;99438.38;4874259;28;98236;-72
2021/03/15 09:29:56;;;;;;;12.93;9.48;;;;;;;10.56;51.83;99446.47;4873822;28;98050;-73
2021/03/15 09:32:27;;;;;;;31.55;10.23;;;;;;;10.63;51.95;99448.72;4860773;28;98035;-72
2021/03/15 09:34:53;;;;;;;15.23;10.20;;;;;;;10.26;52.13;99441.72;4870220;28;97082;-73
2021/03/15 09:37:18;;;;;;;13.77;8.50;;;;;;;9.89;52.99;99442.53;4852494;28;101503;-73
2021/03/15 09:39:44;;;;;;;22.70;10.32;;;;;;;9.82;53.21;99439.34;4867079;28;101064;-72
2021/03/15 09:42:10;;;;;;;15.10;9.68;;;;;;;9.89;53.72;99437.28;4867376;28;98587;-73
2021/03/15 09:44:41;;;;;;;20.50;8.80;;;;;;;10.05;53.63;99438.31;4857809;28;97314;-73
2021/03/15 09:47:07;;;;;;;16.33;8.10;;;;;;;10.14;51.38;99431.78;4864336;28;98116;-73
2021/03/15 09:49:32;;;;;;;10.98;7.47;;;;;;;10.24;50.97;99430.47;4835928;28;101217;-73
2021/03/15 09:52:24;;;;;;;11.25;7.32;;;;;;;10.47;50.76;99425.91;4852625;28;97234;-73
2021/03/15 09:55:12;;;;;;;12.55;8.70;;;;;;;10.62;50.33;99428.66;4851192;28;97522;-73
2021/03/15 09:57:37;;;;;;;14.63;9.32;;;;;;;10.58;50.19;99415.75;4863788;28;100306;-76
2021/03/15 10:00:20;;;;;;;14.98;9.48;;;;;;;10.69;50.60;99425.75;4859002;28;100944;-73
2021/03/15 10:03:23;;;;;;;12.23;9.10;;;;;;;10.63;50.78;99425.09;4862225;28;96925;-73
2021/03/15 10:06:07;;;;;;;12.15;8.48;;;;;;;10.56;50.79;99431.59;4857503;28;97240;-73
2021/03/15 10:08:55;;;;;;;18.20;9.40;;;;;;;10.55;50.59;99423.78;4882274;28;97166;-72
2021/03/15 10:12:00;;;;;;;16.80;9.23;;;;;;;10.46;50.58;99426.84;4833475;29;97831;-73
2021/03/15 10:14:59;;;;;;;12.48;8.18;;;;;;;10.64;50.06;99420.69;4802811;29;97473;-72
2021/03/15 10:17:32;;;;;;;12.80;8.60;;;;;;;11.20;49.61;99419.69;4861157;28;97376;-73
2021/03/15 10:20:27;;;;;;;16.83;8.30;;;;;;;11.58;48.58;99403.72;4841233;28;100854;-73
2021/03/15 10:22:55;;;;;;;15.13;7.30;;;;;;;11.51;48.88;99404.94;4854348;28;102053;-72
2021/03/15 10:25:23;;;;;;;13.27;7.97;;;;;;;11.56;48.30;99397.69;4846904;28;97204;-72
2021/03/15 10:27:57;;;;;;;8.30;6.68;;;;;;;11.83;48.33;99386.63;4856273;28;97980;-72
2021/03/15 10:30:29;;;;;;;12.60;7.70;;;;;;;11.56;47.76;99384.53;4857310;28;101185;-73
2021/03/15 10:32:56;;;;;;;10.98;7.20;;;;;;;11.62;47.12;99383.38;4873454;28;101477;-72
2021/03/15 10:35:24;;;;;;;13.88;6.93;;;;;;;11.75;46.58;99380.00;4848168;28;96814;-73
2021/03/15 10:38:00;;;;;;;10.43;7.07;;;;;;;11.57;47.39;99383.59;4870644;28;97470;-73
2021/03/15 10:40:33;;;;;;;12.68;7.22;;;;;;;11.44;47.33;99378.16;4868019;28;98096;-74
2021/03/15 10:42:59;;;;;;;10.88;6.82;;;;;;;11.55;46.87;99378.44;4857396;28;101290;-73
2021/03/15 10:45:29;;;;;;;15.13;6.85;;;;;;;11.36;47.00;99387.38;4843674;28;97496;-73
2021/03/15 10:48:06;;;;;;;9.10;6.50;;;;;;;10.85;47.36;99389.94;4854951;28;97671;-73
2021/03/15 10:50:47;;;;;;;11.18;6.57;;;;;;;10.57;48.06;99393.06;4858629;28;101324;-72
2021/03/15 10:53:22;;;;;;;14.82;7.32;;;;;;;10.42;48.62;99389.41;4853540;28;101463;-73
2021/03/15 10:55:49;;;;;;;10.45;6.75;;;;;;;10.38;49.12;99387.84;4844817;28;98026;-74
2021/03/15 10:58:21;;;;;;;12.10;6.85;;;;;;;10.33;49.14;99380.22;4834462;29;97087;-73
2021/03/15 11:01:01;;;;;;;12.60;6.88;;;;;;;10.33;49.39;99382.84;4846332;28;101940;-73
2021/03/15 11:03:32;;;;;;;10.65;6.50;;;;;;;10.22;49.26;99379.84;4856212;28;101817;-73
2021/03/15 11:06:15;;;;;;;11.73;6.22;;;;;;;10.17;49.77;99376.56;4864941;28;97053;-72
2021/03/15 11:08:58;;;;;;;14.95;6.38;;;;;;;9.96;49.99;99373.19;4857456;28;96890;-73
2021/03/15 11:11:27;;;;;;;12.40;6.10;;;;;;;9.91;50.35;99370.78;4869473;28;101712;-73
2021/03/15 11:14:06;;;;;;;14.70;6.55;;;;;;;9.79;50.02;99373.13;4876109;28;99795;-73
2021/03/15 11:16:34;;;;;;;11.88;5.82;;;;;;;9.88;50.23;99367.44;4875779;28;97806;-73
2021/03/15 11:19:03;;;;;;;10.93;6.20;;;;;;;9.73;50.75;99369.00;4875834;28;97365;-72
2021/03/15 11:21:41;;;;;;;9.48;5.82;;;;;;;9.76;50.35;99366.25;4873372;28;99373;-73
2021/03/15 11:24:14;;;;;;;10.48;6.57;;;;;;;9.66;50.85;99365.81;4872679;28;98489;-73
2021/03/15 11:27:03;;;;;;;12.18;5.88;;;;;;;9.59;50.80;99363.53;4854622;28;98070;-72
2021/03/15 11:29:44;;;;;;;9.15;4.97;;;;;;;9.59;50.12;99361.75;4841238;28;97340;-72
2021/03/15 11:32:33;;;;;;;10.10;5.75;;;;;;;9.52;50.87;99355.13;4862838;28;99043;-73
2021/03/15 11:35:06;;;;;;;11.63;5.32;;;;;;;9.57;50.53;99352.28;4838267;28;101539;-75
2021/03/15 11:37:49;;;;;;;9.60;5.50;;;;;;;9.59;50.85;99350.44;4855828;28;96759;-73
2021/03/15 11:40:50;;;;;;;14.05;6.50;;;;;;;9.66;51.18;99347.47;4857921;28;97899;-73
2021/03/15 11:43:20;;;;;;;13.20;5.97;;;;;;;9.94;50.88;99339.16;4840954;28;101651;-73
2021/03/15 11:45:54;;;;;;;10.18;5.72;;;;;;;10.13;49.69;99339.16;4846424;28;100093;-73